createdAt,value
2018-12-20T00:00:09.387Z,6.88
2018-12-20T00:02:35.770Z,7.42
2018-12-20T00:05:01.768Z,7.44
2018-12-20T00:07:27.888Z,7.30
2018-12-20T00:09:53.975Z,7.17
2018-12-20T00:12:19.920Z,6.96
2018-12-20T00:14:45.865Z,6.87
2018-12-20T00:17:12.041Z,7.15
2018-12-20T00:19:38.193Z,7.25
2018-12-20T00:22:04.183Z,7.31
2018-12-20T00:24:30.117Z,7.64
2018-12-20T00:26:56.285Z,7.56
2018-12-20T00:29:22.231Z,6.83
2018-12-20T00:31:48.259Z,7.59
2018-12-20T00:34:14.387Z,7.18
2018-12-20T00:36:40.519Z,7.23
2018-12-20T00:39:06.529Z,6.93
2018-12-20T00:41:32.467Z,6.86
2018-12-20T00:43:58.412Z,7.36
2018-12-20T00:46:24.420Z,7.09
2018-12-20T00:48:50.472Z,7.21
2018-12-20T00:51:16.522Z,7.48
2018-12-20T00:53:42.484Z,8.22
2018-12-20T00:56:08.526Z,8.20
2018-12-20T00:58:34.523Z,8.21
2018-12-20T01:01:00.524Z,7.79
2018-12-20T01:03:26.534Z,7.93
2018-12-20T01:05:52.693Z,8.23
2018-12-20T01:08:18.787Z,7.81
2018-12-20T01:10:44.845Z,8.05
2018-12-20T01:13:10.884Z,7.63
2018-12-20T01:15:36.859Z,8.41
2018-12-20T01:18:02.918Z,7.43
2018-12-20T01:20:29.034Z,7.35
2018-12-20T01:22:55.126Z,7.20
2018-12-20T01:25:21.145Z,7.01
2018-12-20T01:27:47.274Z,7.49
2018-12-20T01:30:13.318Z,7.47
2018-12-20T01:32:39.320Z,8.03
2018-12-20T01:35:05.392Z,7.83
2018-12-20T01:37:33.524Z,8.36
2018-12-20T01:39:59.492Z,8.02
2018-12-20T01:42:25.507Z,7.06
2018-12-20T01:44:53.606Z,6.72
2018-12-20T01:47:19.583Z,7.04
2018-12-20T01:49:45.673Z,6.73
2018-12-20T01:52:11.750Z,7.86
2018-12-20T01:54:37.914Z,7.19
2018-12-20T01:57:03.978Z,7.41
2018-12-20T01:59:30.091Z,6.91
2018-12-20T02:01:56.300Z,7.22
2018-12-20T02:04:22.381Z,6.71
2018-12-20T02:06:48.414Z,6.33
2018-12-20T02:09:14.414Z,6.56
2018-12-20T02:11:40.501Z,6.38
2018-12-20T02:14:06.723Z,6.49
2018-12-20T02:16:33.102Z,7.00
2018-12-20T02:18:59.251Z,6.38
2018-12-20T02:21:25.296Z,6.61
2018-12-20T02:23:51.420Z,6.56
2018-12-20T02:26:17.451Z,6.64
2018-12-20T02:28:43.542Z,7.18
2018-12-20T02:31:09.579Z,7.25
2018-12-20T02:33:35.559Z,7.77
2018-12-20T02:36:01.676Z,7.88
2018-12-20T02:38:27.848Z,8.19
2018-12-20T02:40:53.875Z,7.72
2018-12-20T02:43:19.966Z,8.52
2018-12-20T02:45:46.069Z,7.98
2018-12-20T02:48:12.119Z,7.83
2018-12-20T02:50:38.165Z,8.48
2018-12-20T02:53:04.117Z,8.65
2018-12-20T02:55:30.064Z,8.79
2018-12-20T02:57:56.065Z,8.17
2018-12-20T03:00:22.275Z,8.38
2018-12-20T03:02:48.725Z,8.20
2018-12-20T03:05:14.857Z,8.00
2018-12-20T03:07:40.937Z,8.21
2018-12-20T03:10:07.208Z,8.46
2018-12-20T03:12:33.295Z,8.26
2018-12-20T03:14:59.558Z,7.90
2018-12-20T03:17:25.545Z,7.87
2018-12-20T03:19:51.691Z,7.99
2018-12-20T03:22:17.870Z,8.70
2018-12-20T03:24:44.207Z,9.31
2018-12-20T03:27:10.436Z,8.75
2018-12-20T03:29:36.447Z,8.35
2018-12-20T03:32:02.684Z,8.04
2018-12-20T03:34:28.824Z,7.63
2018-12-20T03:36:55.133Z,8.00
2018-12-20T03:39:21.331Z,8.34
2018-12-20T03:41:47.392Z,7.90
2018-12-20T03:44:13.451Z,7.89
2018-12-20T03:46:39.408Z,7.99
2018-12-20T03:49:05.487Z,8.31
2018-12-20T03:51:31.735Z,8.74
2018-12-20T03:53:57.961Z,8.10
2018-12-20T03:56:24.045Z,8.10
2018-12-20T03:58:50.203Z,8.02
2018-12-20T04:01:16.272Z,8.19
2018-12-20T04:03:42.295Z,7.86
2018-12-20T04:06:08.343Z,8.03
2018-12-20T04:08:34.363Z,7.49
2018-12-20T04:11:00.472Z,7.99
2018-12-20T04:13:26.747Z,7.53
2018-12-20T04:15:52.989Z,7.16
2018-12-20T04:18:19.085Z,7.45
2018-12-20T04:20:45.175Z,7.11
2018-12-20T04:23:11.111Z,7.17
2018-12-20T04:25:37.146Z,6.62
2018-12-20T04:28:03.362Z,7.24
2018-12-20T04:30:29.419Z,7.03
2018-12-20T04:32:55.378Z,7.64
2018-12-20T04:35:21.372Z,7.73
2018-12-20T04:37:47.335Z,7.89
2018-12-20T04:40:13.313Z,7.88
2018-12-20T04:42:39.722Z,7.33
2018-12-20T04:45:05.861Z,7.04
2018-12-20T04:47:31.926Z,7.00
2018-12-20T04:49:58.062Z,7.01
2018-12-20T04:52:24.225Z,7.59
2018-12-20T04:54:50.280Z,7.20
2018-12-20T04:57:16.342Z,6.84
2018-12-20T04:59:42.893Z,6.61
2018-12-20T05:02:09.069Z,6.84
2018-12-20T05:04:35.174Z,7.09
2018-12-20T05:07:01.254Z,7.67
2018-12-20T05:09:27.288Z,7.24
2018-12-20T05:11:53.272Z,7.61
2018-12-20T05:14:19.295Z,7.96
2018-12-20T05:16:45.661Z,7.67
2018-12-20T05:19:11.799Z,7.14
2018-12-20T05:21:37.809Z,8.07
2018-12-20T05:24:03.772Z,8.35
2018-12-20T05:26:29.808Z,8.34
2018-12-20T05:28:55.974Z,8.54
2018-12-20T05:31:22.106Z,8.29
2018-12-20T05:33:48.108Z,8.72
2018-12-20T05:36:14.153Z,8.58
2018-12-20T05:38:40.214Z,8.29
2018-12-20T05:41:06.276Z,8.30
2018-12-20T05:43:32.311Z,8.54
2018-12-20T05:46:04.523Z,7.91
2018-12-20T05:48:26.293Z,8.64
2018-12-20T05:50:52.328Z,8.61
2018-12-20T05:53:18.444Z,8.47
2018-12-20T05:55:44.481Z,7.42
2018-12-20T05:58:10.628Z,8.11
2018-12-20T06:00:37.022Z,7.26
2018-12-20T06:03:03.103Z,7.79
2018-12-20T06:05:29.177Z,7.45
2018-12-20T06:10:28.194Z,6.95
2018-12-20T06:12:54.397Z,6.42
2018-12-20T06:15:20.591Z,6.99
2018-12-20T06:17:46.548Z,6.72
2018-12-20T06:20:12.514Z,6.89
2018-12-20T06:22:38.532Z,7.04
2018-12-20T06:25:04.484Z,7.39
2018-12-20T06:27:30.417Z,8.17
2018-12-20T06:29:56.428Z,7.76
2018-12-20T06:32:22.382Z,7.33
2018-12-20T06:34:48.343Z,6.56
2018-12-20T06:37:14.365Z,6.92
2018-12-20T06:39:40.394Z,7.08
2018-12-20T06:42:06.370Z,6.92
2018-12-20T06:44:32.332Z,7.29
2018-12-20T06:46:58.350Z,7.58
2018-12-20T06:49:24.285Z,8.07
2018-12-20T06:51:50.903Z,7.50
2018-12-20T06:54:16.867Z,6.93
2018-12-20T06:56:42.837Z,6.81
2018-12-20T06:59:08.804Z,6.71
2018-12-20T07:01:34.765Z,6.68
2018-12-20T07:04:00.749Z,6.77
2018-12-20T07:06:26.732Z,7.15
2018-12-20T07:08:52.673Z,7.19
2018-12-20T07:11:18.643Z,7.73
2018-12-20T07:13:44.590Z,7.50
2018-12-20T07:16:10.571Z,7.52
2018-12-20T07:18:36.516Z,7.16
2018-12-20T07:21:02.450Z,6.60
2018-12-20T07:23:28.398Z,6.56
2018-12-20T07:25:54.361Z,7.59
2018-12-20T07:28:20.324Z,7.00
2018-12-20T07:30:46.280Z,7.11
2018-12-20T07:33:12.487Z,7.01
2018-12-20T07:35:38.438Z,7.19
2018-12-20T07:38:04.404Z,6.46
2018-12-20T07:40:30.340Z,6.39
2018-12-20T07:42:56.265Z,7.05
2018-12-20T07:45:22.217Z,7.02
2018-12-20T07:47:48.186Z,6.61
2018-12-20T07:50:14.135Z,6.92
2018-12-20T07:52:40.061Z,7.10
2018-12-20T07:55:05.997Z,6.81
2018-12-20T07:57:31.933Z,6.82
2018-12-20T07:59:57.895Z,6.52
2018-12-20T08:02:23.879Z,6.75
2018-12-20T08:04:49.844Z,6.70
2018-12-20T08:07:15.825Z,6.45
2018-12-20T08:09:41.775Z,6.48
2018-12-20T08:12:07.749Z,6.85
2018-12-20T08:14:33.709Z,6.37
2018-12-20T08:16:59.711Z,6.61
2018-12-20T08:19:25.669Z,7.19
2018-12-20T08:24:24.042Z,6.53
2018-12-20T08:26:50.061Z,6.66
2018-12-20T08:29:15.996Z,6.59
2018-12-20T08:31:41.940Z,6.16
2018-12-20T08:34:07.894Z,6.47
2018-12-20T08:36:33.837Z,6.29
2018-12-20T08:38:59.798Z,6.19
2018-12-20T08:41:25.731Z,5.96
2018-12-20T08:43:51.674Z,6.60
2018-12-20T08:46:17.632Z,5.78
2018-12-20T08:48:43.568Z,5.90
2018-12-20T08:51:09.535Z,6.51
2018-12-20T08:53:35.494Z,7.31
2018-12-20T08:56:01.455Z,7.47
2018-12-20T08:58:27.408Z,7.44
2018-12-20T09:00:53.355Z,7.14
2018-12-20T09:03:19.316Z,7.27
2018-12-20T09:05:45.272Z,6.56
2018-12-20T09:08:11.251Z,6.80
2018-12-20T09:10:37.183Z,6.81
2018-12-20T09:13:09.579Z,6.69
2018-12-20T09:15:31.094Z,7.09
2018-12-20T09:17:57.039Z,7.04
2018-12-20T09:20:22.995Z,7.53
2018-12-20T09:22:48.963Z,7.43
2018-12-20T09:25:14.919Z,7.59
2018-12-20T09:27:40.855Z,6.91
2018-12-20T09:30:06.796Z,7.66
2018-12-20T09:32:32.749Z,7.00
2018-12-20T09:34:58.690Z,7.43
2018-12-20T09:37:24.620Z,7.66
2018-12-20T09:39:50.596Z,7.43
2018-12-20T09:42:16.532Z,7.29
2018-12-20T09:44:42.458Z,6.72
2018-12-20T09:47:11.967Z,6.54
2018-12-20T09:49:36.404Z,6.86
2018-12-20T09:52:02.370Z,7.11
2018-12-20T09:54:28.313Z,7.16
2018-12-20T09:56:54.275Z,6.71
2018-12-20T09:59:20.425Z,7.01
2018-12-20T10:01:46.390Z,6.47
2018-12-20T10:04:12.332Z,7.01
2018-12-20T10:06:38.280Z,7.81
2018-12-20T10:09:04.216Z,7.53
2018-12-20T10:11:30.182Z,6.95
2018-12-20T10:13:56.176Z,7.90
2018-12-20T10:16:22.230Z,6.74
2018-12-20T10:18:48.315Z,6.89
2018-12-20T10:21:14.275Z,6.59
2018-12-20T10:23:40.232Z,6.62
2018-12-20T10:26:06.189Z,6.86
2018-12-20T10:28:32.151Z,7.06
2018-12-20T10:30:58.122Z,6.82
2018-12-20T10:33:24.085Z,6.57
2018-12-20T10:35:50.025Z,7.16
2018-12-20T10:38:16.012Z,6.96
2018-12-20T10:40:41.980Z,7.38
2018-12-20T10:43:07.916Z,6.65
2018-12-20T10:45:33.882Z,7.48
2018-12-20T10:47:59.821Z,7.16
2018-12-20T10:50:25.757Z,7.44
2018-12-20T10:52:51.692Z,7.76
2018-12-20T10:55:17.632Z,7.58
2018-12-20T10:57:43.594Z,7.32
2018-12-20T11:00:09.551Z,6.74
2018-12-20T11:02:35.500Z,6.82
2018-12-20T11:05:01.464Z,7.21
2018-12-20T11:07:27.437Z,6.94
2018-12-20T11:09:53.381Z,6.85
2018-12-20T11:12:19.362Z,7.44
2018-12-20T11:14:45.395Z,7.08
2018-12-20T11:17:11.362Z,7.50
2018-12-20T11:19:37.292Z,6.78
2018-12-20T11:22:03.255Z,6.84
2018-12-20T11:24:29.211Z,7.22
2018-12-20T11:26:55.147Z,8.07
2018-12-20T11:29:21.116Z,6.70
2018-12-20T11:31:47.098Z,5.98
2018-12-20T11:34:13.086Z,7.25
2018-12-20T11:36:39.141Z,7.22
2018-12-20T11:39:08.542Z,6.86
2018-12-20T11:41:33.066Z,6.85
2018-12-20T11:43:59.028Z,7.31
2018-12-20T11:46:24.999Z,8.02
2018-12-20T11:48:50.933Z,7.56
2018-12-20T11:51:16.883Z,7.39
2018-12-20T11:53:42.837Z,7.03
2018-12-20T11:56:08.803Z,7.41
2018-12-20T11:58:34.948Z,7.46
2018-12-20T12:01:00.919Z,7.38
2018-12-20T12:03:26.879Z,7.20
2018-12-20T12:05:52.824Z,6.63
2018-12-20T12:08:18.790Z,7.27
2018-12-20T12:10:44.733Z,7.28
2018-12-20T12:13:10.687Z,8.27
2018-12-20T12:15:36.652Z,7.89
2018-12-20T12:18:02.586Z,8.66
2018-12-20T12:20:28.560Z,8.63
2018-12-20T12:22:54.512Z,8.64
2018-12-20T12:25:20.508Z,9.15
2018-12-20T12:27:46.451Z,7.98
2018-12-20T12:30:12.456Z,7.95
2018-12-20T12:32:38.415Z,8.35
2018-12-20T12:35:04.387Z,8.64
2018-12-20T12:37:30.340Z,9.01
2018-12-20T12:39:56.289Z,8.16
2018-12-20T12:42:22.225Z,7.93
2018-12-20T12:44:48.164Z,8.24
2018-12-20T12:47:14.129Z,8.74
2018-12-20T12:49:40.063Z,8.17
2018-12-20T12:52:06.008Z,8.71
2018-12-20T12:54:31.961Z,8.71
2018-12-20T12:56:57.942Z,8.94
2018-12-20T12:59:23.960Z,9.49
2018-12-20T13:01:49.917Z,9.36
2018-12-20T13:04:15.878Z,8.63
2018-12-20T13:06:41.817Z,7.73
2018-12-20T13:09:07.782Z,7.78
2018-12-20T13:11:33.778Z,8.10
2018-12-20T13:13:59.714Z,9.22
2018-12-20T13:16:25.676Z,9.59
2018-12-20T13:18:51.628Z,9.44
2018-12-20T13:21:17.577Z,9.43
2018-12-20T13:23:43.533Z,9.57
2018-12-20T13:26:09.580Z,9.45
2018-12-20T13:28:35.716Z,9.20
2018-12-20T13:31:01.871Z,9.31
2018-12-20T13:33:28.258Z,9.80
2018-12-20T13:35:55.078Z,9.87
2018-12-20T13:38:21.017Z,9.75
2018-12-20T13:40:47.653Z,9.69
2018-12-20T13:43:13.596Z,9.48
2018-12-20T13:45:39.609Z,9.46
2018-12-20T13:48:05.556Z,9.45
2018-12-20T13:50:31.508Z,9.68
2018-12-20T13:52:57.449Z,9.79
2018-12-20T13:55:23.406Z,9.99
2018-12-20T13:57:49.367Z,10.06
2018-12-20T14:00:15.318Z,9.82
2018-12-20T14:02:41.285Z,9.66
2018-12-20T14:05:07.241Z,9.83
2018-12-20T14:07:33.195Z,10.15
2018-12-20T14:09:59.158Z,9.98
2018-12-20T14:12:25.115Z,9.16
2018-12-20T14:14:51.083Z,9.88
2018-12-20T14:17:17.024Z,9.29
2018-12-20T14:19:42.957Z,9.76
2018-12-20T14:22:09.052Z,9.81
2018-12-20T14:24:35.932Z,9.07
2018-12-20T14:27:01.893Z,8.98
2018-12-20T14:29:27.860Z,8.56
2018-12-20T14:31:54.383Z,7.96
2018-12-20T14:34:20.362Z,8.15
2018-12-20T14:36:46.363Z,9.01
2018-12-20T14:39:12.407Z,9.15
2018-12-20T14:41:38.374Z,8.38
2018-12-20T14:44:04.328Z,8.74
2018-12-20T14:46:30.282Z,8.70
2018-12-20T14:48:56.226Z,8.83
2018-12-20T14:51:22.204Z,8.60
2018-12-20T14:53:48.136Z,8.31
2018-12-20T14:56:14.100Z,8.49
2018-12-20T14:58:40.066Z,8.92
2018-12-20T15:01:11.659Z,9.01
2018-12-20T15:03:37.592Z,8.98
2018-12-20T15:06:03.587Z,9.32
2018-12-20T15:08:30.578Z,9.36
2018-12-20T15:10:56.580Z,9.04
2018-12-20T15:13:22.548Z,9.52
2018-12-20T15:15:48.485Z,9.62
2018-12-20T15:18:14.459Z,8.90
2018-12-20T15:20:40.991Z,9.39
2018-12-20T15:23:07.420Z,8.68
2018-12-20T15:25:33.365Z,9.41
2018-12-20T15:27:59.349Z,9.50
2018-12-20T15:30:25.981Z,9.61
2018-12-20T15:32:52.031Z,9.78
2018-12-20T15:35:18.009Z,10.00
2018-12-20T15:37:43.960Z,10.32
2018-12-20T15:40:10.008Z,10.46
2018-12-20T15:42:36.028Z,10.66
2018-12-20T15:45:01.970Z,10.99
2018-12-20T15:47:27.953Z,10.99
2018-12-20T15:49:53.919Z,11.05
2018-12-20T15:52:19.919Z,11.30
2018-12-20T15:54:45.869Z,11.21
2018-12-20T15:57:12.572Z,11.31
2018-12-20T15:59:38.524Z,11.47
2018-12-20T16:02:04.504Z,11.44
2018-12-20T16:04:30.447Z,11.47
2018-12-20T16:06:56.518Z,11.57
2018-12-20T16:09:22.480Z,11.65
2018-12-20T16:11:50.148Z,11.68
2018-12-20T16:14:17.841Z,11.58
2018-12-20T16:16:43.772Z,11.46
2018-12-20T16:19:09.744Z,11.47
2018-12-20T16:21:35.736Z,11.47
2018-12-20T16:24:02.729Z,11.48
2018-12-20T16:26:28.708Z,11.50
2018-12-20T16:28:54.666Z,11.54
2018-12-20T16:31:20.638Z,11.55
2018-12-20T16:33:46.627Z,11.58
2018-12-20T16:36:12.596Z,11.57
2018-12-20T16:38:38.600Z,11.56
2018-12-20T16:41:04.569Z,11.67
2018-12-20T16:43:30.698Z,11.74
2018-12-20T16:45:56.686Z,11.53
2018-12-20T16:48:22.666Z,11.49
2018-12-20T16:50:48.648Z,11.51
2018-12-20T16:53:14.643Z,11.46
2018-12-20T16:55:40.728Z,11.50
2018-12-20T16:58:06.734Z,11.45
2018-12-20T17:00:32.730Z,11.48
2018-12-20T17:02:58.721Z,11.32
2018-12-20T17:05:24.872Z,11.28
2018-12-20T17:07:50.834Z,11.38
2018-12-20T17:10:16.802Z,11.37
2018-12-20T17:12:42.740Z,11.43
2018-12-20T17:15:08.813Z,11.45
2018-12-20T17:17:34.772Z,11.38
2018-12-20T17:20:00.727Z,11.48
2018-12-20T17:22:26.726Z,11.62
2018-12-20T17:24:52.709Z,11.84
2018-12-20T17:27:18.701Z,11.80
2018-12-20T17:29:44.651Z,11.79
2018-12-20T17:32:10.684Z,11.78
2018-12-20T17:34:36.931Z,11.73
2018-12-20T17:37:02.913Z,11.77
2018-12-20T17:39:28.864Z,11.82
2018-12-20T17:41:55.694Z,11.80
2018-12-20T17:44:21.704Z,11.85
2018-12-20T17:46:47.679Z,11.83
2018-12-20T17:49:13.951Z,11.84
2018-12-20T17:51:40.823Z,11.86
2018-12-20T17:54:06.794Z,11.89
2018-12-20T17:56:33.840Z,11.74
2018-12-20T17:59:00.911Z,11.76
2018-12-20T18:04:02.636Z,11.83
2018-12-20T18:06:28.628Z,11.90
2018-12-20T18:08:54.616Z,11.94
2018-12-20T18:11:20.592Z,12.05
2018-12-20T18:13:52.485Z,12.03
2018-12-20T18:16:18.480Z,12.05
2018-12-20T18:18:44.458Z,11.97
2018-12-20T18:21:10.414Z,12.08
2018-12-20T18:23:36.373Z,12.07
2018-12-20T18:26:02.370Z,12.03
2018-12-20T18:28:28.318Z,12.07
2018-12-20T18:30:54.301Z,12.21
2018-12-20T18:33:20.347Z,12.22
2018-12-20T18:35:46.358Z,12.11
2018-12-20T18:38:13.352Z,12.17
2018-12-20T18:40:39.311Z,12.23
2018-12-20T18:43:05.310Z,12.21
2018-12-20T18:45:31.842Z,12.31
2018-12-20T18:47:59.084Z,12.22
2018-12-20T18:50:25.661Z,12.14
2018-12-20T18:52:51.617Z,12.33
2018-12-20T18:55:17.659Z,12.18
2018-12-20T18:57:43.655Z,12.29
2018-12-20T19:00:09.619Z,12.26
2018-12-20T19:02:35.600Z,12.26
2018-12-20T19:05:02.134Z,12.38
2018-12-20T19:07:28.104Z,12.25
2018-12-20T19:09:54.066Z,12.16
2018-12-20T19:12:20.021Z,12.21
2018-12-20T19:14:46.028Z,12.08
2018-12-20T19:17:11.997Z,12.22
2018-12-20T19:19:37.977Z,12.23
2018-12-20T19:22:03.944Z,12.24
2018-12-20T19:24:31.665Z,12.15
2018-12-20T19:26:57.737Z,12.32
2018-12-20T19:29:23.800Z,12.22
2018-12-20T19:31:49.742Z,12.14
2018-12-20T19:34:15.686Z,12.13
2018-12-20T19:36:41.652Z,12.18
2018-12-20T19:39:07.625Z,12.07
2018-12-20T19:41:33.658Z,12.07
2018-12-20T19:43:59.642Z,12.17
2018-12-20T19:46:25.633Z,12.13
2018-12-20T19:48:51.587Z,12.08
2018-12-20T19:51:17.601Z,12.04
2018-12-20T19:53:43.624Z,12.06
2018-12-20T19:56:09.612Z,12.15
2018-12-20T19:58:35.589Z,12.10
2018-12-20T20:01:01.553Z,12.19
2018-12-20T20:03:27.499Z,12.24
2018-12-20T20:05:53.575Z,12.36
2018-12-20T20:08:19.639Z,12.21
2018-12-20T20:10:45.644Z,12.25
2018-12-20T20:13:19.021Z,12.16
2018-12-20T20:15:39.650Z,12.16
2018-12-20T20:18:08.817Z,12.18
2018-12-20T20:20:34.791Z,12.09
2018-12-20T20:23:00.751Z,12.12
2018-12-20T20:25:26.757Z,12.17
2018-12-20T20:27:52.765Z,12.15
2018-12-20T20:30:18.912Z,12.25
2018-12-20T20:32:44.889Z,12.31
2018-12-20T20:35:10.859Z,12.36
2018-12-20T20:37:36.867Z,12.25
2018-12-20T20:40:02.906Z,12.41
2018-12-20T20:42:29.111Z,12.41
2018-12-20T20:44:55.170Z,12.47
2018-12-20T20:47:21.163Z,12.44
2018-12-20T20:49:48.128Z,12.48
2018-12-20T20:52:14.720Z,12.66
2018-12-20T20:54:40.748Z,12.63
2018-12-20T20:57:06.789Z,12.62
2018-12-20T20:59:32.735Z,12.58
2018-12-20T21:01:58.774Z,12.62
2018-12-20T21:04:24.899Z,12.57
2018-12-20T21:06:50.857Z,12.42
2018-12-20T21:09:16.922Z,12.45
2018-12-20T21:11:42.957Z,12.50
2018-12-20T21:14:08.925Z,12.35
2018-12-20T21:16:35.026Z,12.40
2018-12-20T21:19:01.004Z,12.50
2018-12-20T21:21:27.086Z,12.51
2018-12-20T21:23:53.052Z,12.59
2018-12-20T21:26:19.008Z,12.84
2018-12-20T21:28:44.972Z,13.09
2018-12-20T21:33:43.142Z,13.06
2018-12-20T21:36:09.119Z,13.16
2018-12-20T21:38:35.096Z,13.11
2018-12-20T21:41:01.051Z,13.03
2018-12-20T21:43:27.019Z,12.74
2018-12-20T21:45:53.012Z,12.68
2018-12-20T21:48:18.967Z,12.59
2018-12-20T21:50:45.000Z,12.63
2018-12-20T21:53:12.662Z,12.82
2018-12-20T21:55:38.624Z,12.75
2018-12-20T21:58:04.599Z,12.66
2018-12-20T22:00:30.536Z,12.75
2018-12-20T22:02:56.487Z,12.59
2018-12-20T22:05:22.427Z,12.66
2018-12-20T22:07:48.495Z,12.60
2018-12-20T22:10:14.519Z,12.50
2018-12-20T22:12:40.470Z,12.56
2018-12-20T22:15:06.443Z,12.53
2018-12-20T22:17:32.408Z,12.67
2018-12-20T22:19:58.910Z,12.67
2018-12-20T22:22:24.981Z,12.56
2018-12-20T22:24:50.933Z,12.60
2018-12-20T22:27:16.944Z,12.56
2018-12-20T22:32:15.189Z,12.67
2018-12-20T22:34:41.121Z,12.55
2018-12-20T22:37:07.075Z,12.76
2018-12-20T22:39:33.029Z,12.82
2018-12-20T22:41:58.996Z,12.80
2018-12-20T22:44:24.957Z,12.92
2018-12-20T22:46:50.923Z,12.78
2018-12-20T22:49:16.909Z,12.69
2018-12-20T22:51:42.858Z,12.64
2018-12-20T22:54:08.835Z,12.68
2018-12-20T22:56:34.795Z,12.56
2018-12-20T22:59:01.782Z,12.96
2018-12-20T23:01:27.746Z,12.79
2018-12-20T23:03:53.717Z,12.83
2018-12-20T23:06:19.664Z,12.74
2018-12-20T23:08:45.652Z,12.78
2018-12-20T23:11:11.588Z,12.86
2018-12-20T23:13:37.555Z,12.64
2018-12-20T23:16:03.504Z,12.79
2018-12-20T23:18:31.491Z,12.78
2018-12-20T23:21:04.654Z,12.73
2018-12-20T23:23:25.405Z,12.68
2018-12-20T23:25:51.361Z,12.62
2018-12-20T23:28:17.349Z,12.70
2018-12-20T23:30:43.380Z,12.75
2018-12-20T23:33:09.360Z,12.66
2018-12-20T23:35:35.306Z,12.57
2018-12-20T23:38:01.268Z,12.62
2018-12-20T23:40:27.204Z,12.67
2018-12-20T23:42:53.181Z,12.65
2018-12-20T23:45:19.116Z,12.67
2018-12-20T23:47:45.072Z,12.73
2018-12-20T23:50:11.022Z,12.66
2018-12-20T23:52:36.983Z,12.68
2018-12-20T23:55:02.936Z,12.68
2018-12-20T23:57:28.886Z,12.49
2018-12-20T23:59:54.865Z,12.41
